createdAt,value
2022-10-11T00:00:40.452Z,102208.13
2022-10-11T00:03:07.291Z,102206.34
2022-10-11T00:05:35.787Z,102196.00
2022-10-11T00:08:10.489Z,102198.56
2022-10-11T00:10:38.232Z,102203.69
2022-10-11T00:13:05.445Z,102212.25
2022-10-11T00:15:32.547Z,102212.22
2022-10-11T00:18:04.488Z,102221.69
2022-10-11T00:20:32.199Z,102222.50
2022-10-11T00:22:59.515Z,102219.03
2022-10-11T00:25:26.413Z,102230.19
2022-10-11T00:27:53.229Z,102226.72
2022-10-11T00:30:20.273Z,102233.56
2022-10-11T00:32:47.105Z,102230.94
2022-10-11T00:35:14.717Z,102232.63
2022-10-11T00:37:42.154Z,102234.31
2022-10-11T00:40:14.533Z,102231.69
2022-10-11T00:42:41.427Z,102231.66
2022-10-11T00:45:26.554Z,102229.88
2022-10-11T00:47:56.379Z,102235.00
2022-10-11T00:50:24.977Z,102231.53
2022-10-11T00:52:59.529Z,102235.78
2022-10-11T00:55:31.397Z,102230.63
2022-10-11T00:57:59.031Z,102242.63
2022-10-11T01:00:25.902Z,102240.88
2022-10-11T01:02:53.123Z,102242.53
2022-10-11T01:05:35.271Z,102238.19
2022-10-11T01:08:03.375Z,102242.44
2022-10-11T01:10:30.395Z,102250.13
2022-10-11T01:13:34.766Z,102247.50
2022-10-11T01:16:23.352Z,102247.47
2022-10-11T01:19:05.882Z,102247.41
2022-10-11T01:21:54.709Z,102242.22
2022-10-11T01:25:09.385Z,102243.88
2022-10-11T01:28:06.977Z,102247.28
2022-10-11T01:30:36.879Z,102251.53
2022-10-11T01:33:09.664Z,102243.72
2022-10-11T01:35:56.841Z,102241.09
2022-10-11T01:38:31.073Z,102250.53
2022-10-11T01:41:24.600Z,102251.34
2022-10-11T01:44:00.070Z,102251.28
2022-10-11T01:46:29.512Z,102248.66
2022-10-11T01:48:59.396Z,102246.03
2022-10-11T01:51:47.122Z,102253.72
2022-10-11T01:55:08.112Z,102253.66
2022-10-11T01:58:08.886Z,102250.16
2022-10-11T02:00:48.185Z,102253.50
2022-10-11T02:03:32.068Z,102258.66
2022-10-11T02:06:11.094Z,102261.19
2022-10-11T02:09:07.193Z,102261.13
2022-10-11T02:11:38.118Z,102257.66
2022-10-11T02:14:11.861Z,102258.47
2022-10-11T02:17:01.405Z,102256.72
2022-10-11T02:19:32.924Z,102258.41
2022-10-11T02:22:06.204Z,102268.66
2022-10-11T02:24:37.751Z,102268.59
2022-10-11T02:27:05.830Z,102269.41
2022-10-11T02:29:37.798Z,102259.03
2022-10-11T02:32:06.239Z,102268.44
2022-10-11T02:34:52.517Z,102272.66
2022-10-11T02:37:40.758Z,102279.47
2022-10-11T02:40:12.761Z,102278.56
2022-10-11T02:42:45.718Z,102279.41
2022-10-11T02:45:25.750Z,102279.38
2022-10-11T02:47:52.911Z,102276.78
2022-10-11T02:50:22.159Z,102281.91
2022-10-11T02:52:49.345Z,102283.59
2022-10-11T02:55:16.358Z,102283.53
2022-10-11T02:57:43.177Z,102286.91
2022-10-11T03:00:10.972Z,102286.84
2022-10-11T03:02:37.896Z,102292.00
2022-10-11T03:05:05.193Z,102292.75
2022-10-11T03:07:32.150Z,102291.84
2022-10-11T03:09:59.019Z,102291.81
2022-10-11T03:12:26.035Z,102293.50
2022-10-11T03:14:53.113Z,102299.50
2022-10-11T03:17:35.654Z,102303.72
2022-10-11T03:20:06.244Z,102306.25
2022-10-11T03:22:33.174Z,102304.44
2022-10-11T03:25:04.090Z,102312.13
2022-10-11T03:27:32.920Z,102318.13
2022-10-11T03:30:00.189Z,102312.91
2022-10-11T03:32:27.461Z,102315.41
2022-10-11T03:34:54.358Z,102309.34
2022-10-11T03:37:21.233Z,102311.88
2022-10-11T03:39:48.759Z,102317.91
2022-10-11T03:42:15.841Z,102310.09
2022-10-11T03:44:42.704Z,102321.19
2022-10-11T03:47:09.956Z,102323.69
2022-10-11T03:49:41.231Z,102324.50
2022-10-11T03:52:10.810Z,102325.34
2022-10-11T03:54:37.827Z,102328.72
2022-10-11T03:57:04.798Z,102317.50
2022-10-11T03:59:31.652Z,102325.22
2022-10-11T04:01:58.794Z,102324.34
2022-10-11T04:04:25.739Z,102328.59
2022-10-11T04:06:52.633Z,102328.56
2022-10-11T04:09:19.585Z,102333.66
2022-10-11T04:11:47.768Z,102336.16
2022-10-11T04:14:14.811Z,102337.81
2022-10-11T04:16:42.023Z,102336.09
2022-10-11T04:19:08.927Z,102342.94
2022-10-11T04:21:35.824Z,102350.66
2022-10-11T04:24:02.757Z,102348.03
2022-10-11T04:26:31.264Z,102351.38
2022-10-11T04:29:02.793Z,102348.69
2022-10-11T04:31:29.722Z,102352.97
2022-10-11T04:33:57.224Z,102352.09
2022-10-11T04:36:24.302Z,102357.16
2022-10-11T04:38:51.653Z,102351.09
2022-10-11T04:41:18.618Z,102352.78
2022-10-11T04:43:45.664Z,102347.50
2022-10-11T04:46:12.610Z,102349.16
2022-10-11T04:48:39.578Z,102359.50
2022-10-11T04:51:06.536Z,102359.50
2022-10-11T04:53:33.492Z,102351.56
2022-10-11T04:56:03.989Z,102361.94
2022-10-11T04:58:32.379Z,102360.13
2022-10-11T05:00:59.340Z,102371.38
2022-10-11T05:03:26.822Z,102375.59
2022-10-11T05:05:53.714Z,102372.94
2022-10-11T05:08:20.853Z,102373.66
2022-10-11T05:10:58.818Z,102375.34
2022-10-11T05:13:26.798Z,102384.00
2022-10-11T05:15:54.077Z,102380.50
2022-10-11T05:18:21.184Z,102383.06
2022-10-11T05:20:48.303Z,102393.28
2022-10-11T05:23:15.435Z,102390.59
2022-10-11T05:25:42.314Z,102387.94
2022-10-11T05:28:09.328Z,102388.75
2022-10-11T05:30:36.222Z,102394.75
2022-10-11T05:33:03.244Z,102394.72
2022-10-11T05:35:30.212Z,102384.28
2022-10-11T05:37:57.242Z,102399.78
2022-10-11T05:40:24.150Z,102400.50
2022-10-11T05:42:52.222Z,102397.06
2022-10-11T05:45:19.201Z,102401.28
2022-10-11T05:47:45.984Z,102405.63
2022-10-11T05:50:12.945Z,102408.06
2022-10-11T05:52:39.899Z,102408.06
2022-10-11T05:55:07.535Z,102410.59
2022-10-11T05:57:34.519Z,102406.16
2022-10-11T06:00:01.797Z,102414.03
2022-10-11T06:02:28.623Z,102416.50
2022-10-11T06:04:55.526Z,102410.38
2022-10-11T06:07:22.531Z,102419.06
2022-10-11T06:09:49.379Z,102424.31
2022-10-11T06:12:17.328Z,102419.16
2022-10-11T06:14:44.641Z,102414.72
2022-10-11T06:17:11.578Z,102421.47
2022-10-11T06:19:38.614Z,102433.56
2022-10-11T06:22:05.627Z,102426.56
2022-10-11T06:24:32.682Z,102437.78
2022-10-11T06:27:00.524Z,102429.09
2022-10-11T06:29:27.438Z,102425.59
2022-10-11T06:31:58.519Z,102446.34
2022-10-11T06:34:25.613Z,102445.50
2022-10-11T06:36:52.657Z,102440.34
2022-10-11T06:39:19.974Z,102448.06
2022-10-11T06:41:46.915Z,102445.59
2022-10-11T06:44:14.545Z,102448.25
2022-10-11T06:46:41.798Z,102449.13
2022-10-11T06:49:08.911Z,102448.25
2022-10-11T06:51:35.990Z,102452.66
2022-10-11T06:54:05.315Z,102461.34
2022-10-11T06:56:32.435Z,102468.22
2022-10-11T06:59:00.040Z,102471.63
2022-10-11T07:01:27.605Z,102472.59
2022-10-11T07:03:56.193Z,102475.22
2022-10-11T07:06:28.296Z,102482.19
2022-10-11T07:08:55.608Z,102483.94
2022-10-11T07:11:25.960Z,102493.56
2022-10-11T07:13:58.890Z,102488.44
2022-10-11T07:16:27.316Z,102483.38
2022-10-11T07:19:00.203Z,102492.03
2022-10-11T07:21:30.115Z,102493.91
2022-10-11T07:23:57.209Z,102494.81
2022-10-11T07:26:24.224Z,102501.81
2022-10-11T07:28:51.720Z,102499.25
2022-10-11T07:31:24.337Z,102504.53
2022-10-11T07:33:51.407Z,102502.06
2022-10-11T07:36:18.843Z,102508.13
2022-10-11T07:38:46.929Z,102512.53
2022-10-11T07:41:14.584Z,102511.75
2022-10-11T07:43:43.476Z,102505.81
2022-10-11T07:46:11.405Z,102511.22
2022-10-11T07:48:38.751Z,102508.72
2022-10-11T07:51:11.891Z,102507.94
2022-10-11T07:53:40.794Z,102517.56
2022-10-11T07:56:09.464Z,102512.44
2022-10-11T07:58:36.598Z,102516.91
2022-10-11T08:01:04.307Z,102516.22
2022-10-11T08:03:31.202Z,102514.53
2022-10-11T08:06:09.710Z,102511.22
2022-10-11T08:08:37.728Z,102519.03
2022-10-11T08:11:06.378Z,102519.16
2022-10-11T08:13:33.984Z,102522.72
2022-10-11T08:16:01.738Z,102513.31
2022-10-11T08:18:28.764Z,102509.09
2022-10-11T08:20:55.683Z,102518.72
2022-10-11T08:23:22.613Z,102525.78
2022-10-11T08:25:49.522Z,102528.44
2022-10-11T08:28:20.817Z,102520.75
2022-10-11T08:30:53.054Z,102524.28
2022-10-11T08:33:21.925Z,102531.28
2022-10-11T08:35:49.757Z,102527.06
2022-10-11T08:38:17.690Z,102537.53
2022-10-11T08:40:50.660Z,102528.16
2022-10-11T08:43:46.964Z,102545.53
2022-10-11T08:46:15.429Z,102534.41
2022-10-11T08:48:46.314Z,102538.81
2022-10-11T08:51:23.391Z,102539.72
2022-10-11T08:53:56.044Z,102538.13
2022-10-11T08:56:26.444Z,102545.94
2022-10-11T08:59:04.851Z,102540.81
2022-10-11T09:01:32.343Z,102541.81
2022-10-11T09:04:00.251Z,102547.91
2022-10-11T09:07:04.869Z,102546.31
2022-10-11T09:10:06.262Z,102550.69
2022-10-11T09:12:50.138Z,102539.50
2022-10-11T09:15:17.122Z,102546.50
2022-10-11T09:18:01.437Z,102544.78
2022-10-11T09:20:34.569Z,102544.91
2022-10-11T09:23:23.303Z,102539.81
2022-10-11T09:25:58.620Z,102542.44
2022-10-11T09:29:03.229Z,102542.56
2022-10-11T09:31:30.597Z,102550.38
2022-10-11T09:33:59.781Z,102547.00
2022-10-11T09:36:39.083Z,102547.91
2022-10-11T09:39:11.953Z,102545.38
2022-10-11T09:41:48.857Z,102542.03
2022-10-11T09:44:28.061Z,102543.88
2022-10-11T09:46:57.037Z,102540.50
2022-10-11T09:49:56.640Z,102544.03
2022-10-11T09:52:24.759Z,102549.19
2022-10-11T09:55:00.560Z,102543.25
2022-10-11T09:57:29.333Z,102551.09
2022-10-11T10:00:00.963Z,102550.28
2022-10-11T10:02:29.861Z,102548.63
2022-10-11T10:04:58.515Z,102550.41
2022-10-11T10:07:27.957Z,102559.06
2022-10-11T10:09:55.137Z,102553.94
2022-10-11T10:12:26.498Z,102560.06
2022-10-11T10:15:19.134Z,102567.03
2022-10-11T10:17:53.440Z,102561.06
2022-10-11T10:20:29.011Z,102559.38
2022-10-11T10:23:26.696Z,102557.75
2022-10-11T10:26:20.065Z,102551.69
2022-10-11T10:29:05.390Z,102560.44
2022-10-11T10:34:48.887Z,102552.00
2022-10-11T10:37:48.581Z,102547.75
2022-10-11T10:40:24.927Z,102545.22
2022-10-11T10:42:52.591Z,102550.44
2022-10-11T10:45:25.134Z,102541.91
2022-10-11T10:48:41.740Z,102541.91
2022-10-11T10:51:40.541Z,102552.44
2022-10-11T10:54:19.541Z,102545.53
2022-10-11T10:56:56.080Z,102545.59
2022-10-11T10:59:47.387Z,102542.22
2022-10-11T11:02:39.821Z,102537.94
2022-10-11T11:05:40.335Z,102538.84
2022-10-11T11:08:17.418Z,102540.66
2022-10-11T11:11:02.066Z,102538.09
2022-10-11T11:13:45.202Z,102542.53
2022-10-11T11:16:29.588Z,102534.78
2022-10-11T11:19:17.620Z,102539.13
2022-10-11T11:21:54.962Z,102534.03
2022-10-11T11:24:43.404Z,102531.47
2022-10-11T11:27:26.545Z,102527.25
2022-10-11T11:30:03.172Z,102529.81
2022-10-11T11:33:02.437Z,102527.31
2022-10-11T11:35:42.943Z,102526.47
2022-10-11T11:38:39.072Z,102523.09
2022-10-11T11:41:14.342Z,102514.47
2022-10-11T11:44:11.305Z,102511.09
2022-10-11T11:46:59.153Z,102501.63
2022-10-11T11:49:36.917Z,102501.66
2022-10-11T11:52:06.759Z,102509.50
2022-10-11T11:54:44.456Z,102500.00
2022-10-11T11:57:32.701Z,102500.09
2022-10-11T12:00:13.966Z,102494.97
2022-10-11T12:03:03.743Z,102487.22
2022-10-11T12:05:34.977Z,102486.38
2022-10-11T12:08:06.114Z,102495.94
2022-10-11T12:10:37.728Z,102488.19
2022-10-11T12:13:21.528Z,102486.47
2022-10-11T12:16:03.730Z,102471.81
2022-10-11T12:18:31.522Z,102478.78
2022-10-11T12:21:24.899Z,102477.94
2022-10-11T12:23:57.348Z,102465.88
2022-10-11T12:26:36.963Z,102460.72
2022-10-11T12:29:28.730Z,102460.72
2022-10-11T12:32:01.944Z,102459.91
2022-10-11T12:37:19.780Z,102444.44
2022-10-11T12:39:57.163Z,102436.69
2022-10-11T12:42:35.981Z,102439.31
2022-10-11T12:45:23.430Z,102435.00
2022-10-11T12:48:02.722Z,102432.44
2022-10-11T12:50:41.719Z,102426.41
2022-10-11T12:53:20.564Z,102421.22
2022-10-11T12:56:17.221Z,102430.78
2022-10-11T12:58:48.113Z,102429.06
2022-10-11T13:01:24.420Z,102426.50
2022-10-11T13:04:03.180Z,102429.09
2022-10-11T13:06:35.701Z,102430.00
2022-10-11T13:09:33.544Z,102430.03
2022-10-11T13:12:06.477Z,102420.47
2022-10-11T13:14:42.429Z,102417.91
2022-10-11T13:17:26.495Z,102418.81
2022-10-11T13:20:23.054Z,102423.16
2022-10-11T13:22:53.079Z,102421.41
2022-10-11T13:25:25.978Z,102421.41
2022-10-11T13:27:54.742Z,102411.03
2022-10-11T13:30:34.364Z,102411.94
2022-10-11T13:33:05.966Z,102408.47
2022-10-11T13:35:36.328Z,102405.00
2022-10-11T13:38:07.267Z,102403.28
2022-10-11T13:40:35.301Z,102398.13
2022-10-11T13:43:05.201Z,102399.84
2022-10-11T13:45:35.181Z,102398.09
2022-10-11T13:48:02.347Z,102398.13
2022-10-11T13:50:34.643Z,102398.13
2022-10-11T13:53:23.837Z,102393.78
2022-10-11T13:56:12.484Z,102393.78
2022-10-11T13:58:46.147Z,102392.91
2022-10-11T14:01:26.969Z,102383.41
2022-10-11T14:03:59.067Z,102378.22
2022-10-11T14:06:51.477Z,102382.53
2022-10-11T14:09:18.242Z,102387.72
2022-10-11T14:11:45.505Z,102388.66
2022-10-11T14:14:41.032Z,102386.03
2022-10-11T14:17:10.615Z,102387.75
2022-10-11T14:19:38.015Z,102383.44
2022-10-11T14:22:07.375Z,102374.78
2022-10-11T14:24:34.323Z,102380.84
2022-10-11T14:27:05.485Z,102379.09
2022-10-11T14:29:35.534Z,102374.78
2022-10-11T14:32:18.107Z,102373.06
2022-10-11T14:34:47.345Z,102370.44
2022-10-11T14:37:18.813Z,102372.19
2022-10-11T14:39:47.706Z,102371.31
2022-10-11T14:42:15.552Z,102368.72
2022-10-11T14:44:42.384Z,102364.41
2022-10-11T14:47:14.903Z,102373.06
2022-10-11T14:49:42.099Z,102366.13
2022-10-11T14:52:12.321Z,102372.19
2022-10-11T14:54:39.486Z,102368.72
2022-10-11T14:57:06.524Z,102374.78
2022-10-11T14:59:36.948Z,102360.06
2022-10-11T15:02:06.612Z,102352.28
2022-10-11T15:04:34.085Z,102364.38
2022-10-11T15:07:01.374Z,102356.59
2022-10-11T15:09:28.709Z,102351.41
2022-10-11T15:11:56.442Z,102353.13
2022-10-11T15:14:24.549Z,102346.19
2022-10-11T15:16:51.487Z,102345.31
2022-10-11T15:19:21.507Z,102347.91
2022-10-11T15:21:49.147Z,102346.19
2022-10-11T15:24:19.836Z,102350.50
2022-10-11T15:26:48.135Z,102348.78
2022-10-11T15:29:17.669Z,102339.25
2022-10-11T15:31:45.871Z,102338.38
2022-10-11T15:34:12.753Z,102336.66
2022-10-11T15:36:39.679Z,102343.59
2022-10-11T15:39:36.723Z,102350.53
2022-10-11T15:42:03.722Z,102353.09
2022-10-11T15:44:30.599Z,102352.25
2022-10-11T15:46:57.461Z,102350.50
2022-10-11T15:49:24.239Z,102334.94
2022-10-11T15:51:51.082Z,102340.13
2022-10-11T15:54:17.945Z,102345.31
2022-10-11T15:56:44.783Z,102338.41
2022-10-11T15:59:11.814Z,102352.28
2022-10-11T16:01:38.887Z,102343.63
2022-10-11T16:04:06.281Z,102337.53
2022-10-11T16:06:33.339Z,102332.38
2022-10-11T16:09:00.215Z,102326.25
2022-10-11T16:11:27.132Z,102334.06
2022-10-11T16:13:53.930Z,102334.94
2022-10-11T16:16:20.876Z,102328.00
2022-10-11T16:18:49.930Z,102326.28
2022-10-11T16:21:16.943Z,102332.31
2022-10-11T16:23:43.722Z,102335.78
2022-10-11T16:26:13.977Z,102328.00
2022-10-11T16:28:42.035Z,102334.94
2022-10-11T16:31:18.047Z,102336.63
2022-10-11T16:33:48.043Z,102334.91
2022-10-11T16:36:35.662Z,102340.09
2022-10-11T16:39:14.830Z,102340.94
2022-10-11T16:41:42.643Z,102338.34
2022-10-11T16:44:14.909Z,102340.06
2022-10-11T16:46:42.648Z,102336.59
2022-10-11T16:49:09.601Z,102343.50
2022-10-11T16:51:36.497Z,102339.19
2022-10-11T16:54:03.810Z,102345.22
2022-10-11T16:56:32.524Z,102333.94
2022-10-11T16:59:01.032Z,102328.75
2022-10-11T17:01:28.087Z,102332.19
2022-10-11T17:03:55.778Z,102341.69
2022-10-11T17:06:24.030Z,102344.28
2022-10-11T17:08:50.941Z,102340.81
2022-10-11T17:11:18.046Z,102333.84
2022-10-11T17:13:45.923Z,102335.53
2022-10-11T17:16:13.007Z,102338.09
2022-10-11T17:18:39.939Z,102333.72
2022-10-11T17:21:11.469Z,102338.06
2022-10-11T17:23:41.734Z,102345.78
2022-10-11T17:26:13.358Z,102340.59
2022-10-11T17:28:40.711Z,102340.53
2022-10-11T17:31:08.448Z,102344.84
2022-10-11T17:33:35.798Z,102335.31
2022-10-11T17:36:12.379Z,102341.34
2022-10-11T17:38:39.218Z,102337.84
2022-10-11T17:41:10.388Z,102343.81
2022-10-11T17:43:37.430Z,102335.16
2022-10-11T17:46:06.113Z,102348.97
2022-10-11T17:48:36.573Z,102345.47
2022-10-11T17:51:15.727Z,102341.97
2022-10-11T17:53:43.587Z,102346.25
2022-10-11T17:56:13.928Z,102344.47
2022-10-11T17:58:41.188Z,102344.41
2022-10-11T18:01:14.012Z,102345.25
2022-10-11T18:03:42.127Z,102343.47
2022-10-11T18:06:12.641Z,102340.75
2022-10-11T18:08:40.924Z,102338.19
2022-10-11T18:11:13.726Z,102350.22
2022-10-11T18:13:45.646Z,102351.84
2022-10-11T18:16:17.550Z,102350.06
2022-10-11T18:18:44.482Z,102351.75
2022-10-11T18:21:12.181Z,102349.06
2022-10-11T18:23:42.153Z,102353.34
2022-10-11T18:26:17.952Z,102355.91
2022-10-11T18:28:45.734Z,102343.78
2022-10-11T18:31:15.536Z,102346.31
2022-10-11T18:33:43.491Z,102358.34
2022-10-11T18:36:13.373Z,102347.06
2022-10-11T18:38:46.099Z,102350.50
2022-10-11T18:41:18.280Z,102357.38
2022-10-11T18:43:50.085Z,102344.34
2022-10-11T18:46:17.398Z,102349.50
2022-10-11T18:48:46.528Z,102349.47
2022-10-11T18:51:18.319Z,102345.09
2022-10-11T18:53:45.910Z,102340.75
2022-10-11T18:56:14.081Z,102353.63
2022-10-11T18:58:41.859Z,102348.41
2022-10-11T19:01:17.905Z,102346.63
2022-10-11T19:03:46.588Z,102351.78
2022-10-11T19:06:19.408Z,102346.56
2022-10-11T19:08:54.258Z,102349.13
2022-10-11T19:11:22.551Z,102338.75
2022-10-11T19:13:56.305Z,102341.25
2022-10-11T19:16:23.463Z,102336.00
2022-10-11T19:18:50.449Z,102341.13
2022-10-11T19:21:17.697Z,102341.06
2022-10-11T19:23:46.350Z,102335.84
2022-10-11T19:26:19.213Z,102341.84
2022-10-11T19:28:46.898Z,102341.78
2022-10-11T19:31:17.011Z,102341.75
2022-10-11T19:33:45.387Z,102342.56
2022-10-11T19:36:14.087Z,102347.69
2022-10-11T19:38:45.196Z,102342.41
2022-10-11T19:41:13.231Z,102339.75
2022-10-11T19:43:40.149Z,102333.63
2022-10-11T19:46:10.364Z,102338.81
2022-10-11T19:48:39.452Z,102337.00
2022-10-11T19:51:26.125Z,102336.13
2022-10-11T19:53:57.772Z,102342.97
2022-10-11T19:56:26.458Z,102345.44
2022-10-11T19:58:54.088Z,102335.94
2022-10-11T20:01:23.456Z,102342.75
2022-10-11T20:03:53.342Z,102347.00
2022-10-11T20:06:22.050Z,102347.00
2022-10-11T20:08:59.834Z,102343.50
2022-10-11T20:11:36.658Z,102346.91
2022-10-11T20:14:03.719Z,102347.69
2022-10-11T20:16:30.617Z,102351.09
2022-10-11T20:19:01.994Z,102347.59
2022-10-11T20:21:30.262Z,102348.34
2022-10-11T20:24:02.878Z,102343.19
2022-10-11T20:26:31.532Z,102340.50
2022-10-11T20:28:58.603Z,102330.94
2022-10-11T20:31:31.586Z,102339.53
2022-10-11T20:34:06.117Z,102343.78
2022-10-11T20:36:34.277Z,102340.22
2022-10-11T20:39:01.223Z,102351.41
2022-10-11T20:41:34.179Z,102346.97
2022-10-11T20:44:02.164Z,102350.41
2022-10-11T20:46:31.635Z,102351.16
2022-10-11T20:49:03.801Z,102343.31
2022-10-11T20:51:33.310Z,102353.69
2022-10-11T20:54:02.015Z,102343.31
2022-10-11T20:56:29.860Z,102343.22
2022-10-11T20:58:58.214Z,102340.59
2022-10-11T21:01:30.617Z,102347.44
2022-10-11T21:03:59.181Z,102337.97
2022-10-11T21:06:27.097Z,102331.78
2022-10-11T21:08:59.039Z,102336.97
2022-10-11T21:11:27.577Z,102336.88
2022-10-11T21:13:57.300Z,102339.38
2022-10-11T21:16:24.757Z,102330.72
2022-10-11T21:18:56.273Z,102331.59
2022-10-11T21:21:24.056Z,102329.81
2022-10-11T21:23:59.224Z,102328.91
2022-10-11T21:26:27.487Z,102326.25
2022-10-11T21:28:54.535Z,102322.75
2022-10-11T21:31:22.518Z,102313.19
2022-10-11T21:33:49.629Z,102324.38
2022-10-11T21:36:18.778Z,102320.88
2022-10-11T21:38:45.681Z,102332.00
2022-10-11T21:41:19.012Z,102319.91
2022-10-11T21:43:47.182Z,102313.81
2022-10-11T21:46:22.798Z,102328.38
2022-10-11T21:48:53.002Z,102313.72
2022-10-11T21:51:40.498Z,102323.94
2022-10-11T21:54:07.582Z,102333.38
2022-10-11T21:56:39.513Z,102330.69
2022-10-11T21:59:12.003Z,102321.13
2022-10-11T22:01:45.480Z,102328.84
2022-10-11T22:04:13.728Z,102313.13
2022-10-11T22:06:40.682Z,102330.56
2022-10-11T22:09:08.438Z,102326.06
2022-10-11T22:11:44.057Z,102325.34
2022-10-11T22:14:15.432Z,102323.56
2022-10-11T22:16:48.572Z,102333.81
2022-10-11T22:19:19.423Z,102329.44
2022-10-11T22:21:52.297Z,102322.56
2022-10-11T22:24:24.563Z,102321.63
2022-10-11T22:26:58.641Z,102311.13
2022-10-11T22:29:35.385Z,102320.69
2022-10-11T22:32:04.572Z,102314.50
2022-10-11T22:34:37.157Z,102318.00
2022-10-11T22:37:08.165Z,102320.50
2022-10-11T22:39:43.728Z,102319.66
2022-10-11T22:42:18.273Z,102310.97
2022-10-11T22:44:47.619Z,102317.78
2022-10-11T22:47:22.626Z,102316.06
2022-10-11T22:49:52.321Z,102321.22
2022-10-11T22:52:22.259Z,102319.34
2022-10-11T22:54:50.330Z,102327.06
2022-10-11T22:57:17.902Z,102326.22
2022-10-11T22:59:45.123Z,102324.47
2022-10-11T23:02:14.744Z,102324.34
2022-10-11T23:04:46.210Z,102322.56
2022-10-11T23:07:15.076Z,102326.84
2022-10-11T23:09:44.061Z,102325.13
2022-10-11T23:12:32.675Z,102321.63
2022-10-11T23:15:04.778Z,102325.84
2022-10-11T23:17:35.021Z,102321.47
2022-10-11T23:20:11.660Z,102322.25
2022-10-11T23:22:40.310Z,102329.91
2022-10-11T23:28:07.899Z,102312.69
2022-10-11T23:30:37.149Z,102324.63
2022-10-11T23:33:05.595Z,102322.88
2022-10-11T23:35:34.462Z,102314.16
2022-10-11T23:38:28.642Z,102315.94
2022-10-11T23:41:00.482Z,102322.72
2022-10-11T23:43:33.542Z,102312.34
2022-10-11T23:46:00.628Z,102316.56
2022-10-11T23:48:27.663Z,102328.56
2022-10-11T23:50:55.801Z,102319.94
2022-10-11T23:53:22.814Z,102323.28
2022-10-11T23:55:52.925Z,102324.91
2022-10-11T23:58:21.652Z,102315.41
